Sumner, Washington
Current Conditions -  °F | °C
As of 2:09 PM on Tuesday 25 Nov 2014 (Local Time) from KTCM Reporting Station
Overcast Overcast  
Wind Chill: 57°   Ceiling: 700
Heat Index: 57°   Visibility: 10mi
Dew Point: 57°   Wind: 15mph
Humidity: 100%   Direction: 200°SSW
Pressure: 30.2"   Gusts: 22mph
Location:  47.2°N, 122.23°W
Report Text: KTCM 252209Z AUTO 20013G19KT 10SM BKN007 BKN012 OVC028 14/14 A3020 RMK AO2 RAE2209 $
Loading
Personal Weather Stations






























Interactive Weather Map New forecast layout! Learn more

10-Day Weather Forecast

Advertisements
Track Severe Weather on mobile